sensor_id;sensor_type;location;lat;lon;timestamp;pressure;altitude;pressure_sealevel;temperature;humidity
35758;BME280;21879;50.110;18.900;2022-11-23T00:09:59;97549.81;;;4.68;63.29
35758;BME280;21879;50.110;18.900;2022-11-23T00:20:26;97551.57;;;4.59;63.36
35758;BME280;21879;50.110;18.900;2022-11-23T00:30:53;97556.07;;;4.53;63.26
35758;BME280;21879;50.110;18.900;2022-11-23T00:41:23;97552.87;;;4.35;62.98
35758;BME280;21879;50.110;18.900;2022-11-23T00:51:51;97543.27;;;4.23;63.31
35758;BME280;21879;50.110;18.900;2022-11-23T01:02:18;97535.88;;;4.19;63.09
35758;BME280;21879;50.110;18.900;2022-11-23T01:12:46;97531.60;;;4.07;63.34
35758;BME280;21879;50.110;18.900;2022-11-23T01:23:13;97534.89;;;4.02;63.26
35758;BME280;21879;50.110;18.900;2022-11-23T01:33:40;97531.45;;;4.01;63.46
35758;BME280;21879;50.110;18.900;2022-11-23T01:44:23;97531.44;;;4.05;63.41
35758;BME280;21879;50.110;18.900;2022-11-23T01:54:53;97532.47;;;4.08;63.67
35758;BME280;21879;50.110;18.900;2022-11-23T02:05:24;97546.73;;;4.12;63.68
35758;BME280;21879;50.110;18.900;2022-11-23T02:15:54;97542.27;;;4.11;63.85
35758;BME280;21879;50.110;18.900;2022-11-23T02:26:21;97536.25;;;4.07;63.82
35758;BME280;21879;50.110;18.900;2022-11-23T02:36:51;97548.70;;;3.80;64.19
35758;BME280;21879;50.110;18.900;2022-11-23T02:47:19;97550.39;;;3.91;64.77
35758;BME280;21879;50.110;18.900;2022-11-23T02:57:46;97544.22;;;3.54;64.14
35758;BME280;21879;50.110;18.900;2022-11-23T03:08:14;97545.77;;;3.21;65.17
35758;BME280;21879;50.110;18.900;2022-11-23T03:18:41;97541.74;;;2.84;65.72
35758;BME280;21879;50.110;18.900;2022-11-23T03:29:09;97535.53;;;2.72;66.17
35758;BME280;21879;50.110;18.900;2022-11-23T03:39:36;97529.82;;;2.52;66.40
35758;BME280;21879;50.110;18.900;2022-11-23T03:50:12;97533.64;;;2.67;67.37
35758;BME280;21879;50.110;18.900;2022-11-23T04:00:39;97542.11;;;2.97;67.22
35758;BME280;21879;50.110;18.900;2022-11-23T04:11:07;97545.93;;;3.16;67.35
35758;BME280;21879;50.110;18.900;2022-11-23T04:21:34;97542.69;;;3.35;67.14
35758;BME280;21879;50.110;18.900;2022-11-23T04:32:01;97539.08;;;3.40;66.71
35758;BME280;21879;50.110;18.900;2022-11-23T04:42:29;97538.21;;;3.57;66.91
35758;BME280;21879;50.110;18.900;2022-11-23T04:52:56;97537.34;;;3.76;66.54
35758;BME280;21879;50.110;18.900;2022-11-23T05:03:24;97534.44;;;3.56;66.29
35758;BME280;21879;50.110;18.900;2022-11-23T05:13:52;97540.97;;;3.69;66.59
35758;BME280;21879;50.110;18.900;2022-11-23T05:24:19;97534.23;;;3.94;66.49
35758;BME280;21879;50.110;18.900;2022-11-23T05:34:47;97531.31;;;3.92;65.88
35758;BME280;21879;50.110;18.900;2022-11-23T05:45:15;97529.77;;;3.72;65.63
35758;BME280;21879;50.110;18.900;2022-11-23T05:55:42;97527.73;;;3.60;66.05
35758;BME280;21879;50.110;18.900;2022-11-23T06:06:10;97534.45;;;3.56;65.87
35758;BME280;21879;50.110;18.900;2022-11-23T06:16:38;97561.08;;;3.62;66.36
35758;BME280;21879;50.110;18.900;2022-11-23T06:27:05;97572.93;;;3.81;66.36
35758;BME280;21879;50.110;18.900;2022-11-23T06:37:33;97569.16;;;3.74;65.81
35758;BME280;21879;50.110;18.900;2022-11-23T06:48:00;97570.70;;;3.52;65.99
35758;BME280;21879;50.110;18.900;2022-11-23T06:58:28;97577.70;;;3.22;66.35
35758;BME280;21879;50.110;18.900;2022-11-23T07:08:55;97571.69;;;3.12;66.69
35758;BME280;21879;50.110;18.900;2022-11-23T07:19:23;97573.72;;;2.94;67.32
35758;BME280;21879;50.110;18.900;2022-11-23T07:29:50;97583.52;;;3.02;67.54
35758;BME280;21879;50.110;18.900;2022-11-23T07:40:17;97593.30;;;2.97;67.56
35758;BME280;21879;50.110;18.900;2022-11-23T07:50:45;97604.05;;;2.80;67.88
35758;BME280;21879;50.110;18.900;2022-11-23T08:01:14;97608.20;;;2.85;68.51
35758;BME280;21879;50.110;18.900;2022-11-23T08:11:43;97609.11;;;3.00;68.64
35758;BME280;21879;50.110;18.900;2022-11-23T08:22:10;97609.45;;;3.02;68.47
35758;BME280;21879;50.110;18.900;2022-11-23T08:32:40;97597.27;;;3.06;68.91
35758;BME280;21879;50.110;18.900;2022-11-23T08:43:08;97585.77;;;3.13;68.73
35758;BME280;21879;50.110;18.900;2022-11-23T08:53:36;97586.79;;;3.07;69.09
35758;BME280;21879;50.110;18.900;2022-11-23T09:04:04;97587.45;;;2.96;68.93
35758;BME280;21879;50.110;18.900;2022-11-23T09:14:31;97583.47;;;2.86;69.05
35758;BME280;21879;50.110;18.900;2022-11-23T09:25:00;97588.31;;;2.98;69.32
35758;BME280;21879;50.110;18.900;2022-11-23T09:35:27;97590.77;;;3.17;69.36
35758;BME280;21879;50.110;18.900;2022-11-23T09:45:56;97579.45;;;3.26;69.04
35758;BME280;21879;50.110;18.900;2022-11-23T09:56:31;97564.47;;;3.05;68.84
35758;BME280;21879;50.110;18.900;2022-11-23T10:07:10;97551.05;;;2.89;68.99
35758;BME280;21879;50.110;18.900;2022-11-23T10:18:14;97548.30;;;2.94;69.36
35758;BME280;21879;50.110;18.900;2022-11-23T10:28:46;97533.35;;;2.92;69.28
35758;BME280;21879;50.110;18.900;2022-11-23T10:39:18;97532.33;;;2.94;69.53
35758;BME280;21879;50.110;18.900;2022-11-23T10:49:57;97520.51;;;3.19;69.78
35758;BME280;21879;50.110;18.900;2022-11-23T11:00:26;97514.67;;;3.17;68.85
35758;BME280;21879;50.110;18.900;2022-11-23T11:11:00;97511.07;;;3.23;69.43
35758;BME280;21879;50.110;18.900;2022-11-23T11:21:32;97517.94;;;3.35;68.74
35758;BME280;21879;50.110;18.900;2022-11-23T11:32:05;97510.72;;;3.45;68.69
35758;BME280;21879;50.110;18.900;2022-11-23T11:42:37;97496.45;;;3.57;68.23
35758;BME280;21879;50.110;18.900;2022-11-23T11:53:10;97496.77;;;3.72;68.35
35758;BME280;21879;50.110;18.900;2022-11-23T12:03:41;97500.70;;;3.79;67.89
35758;BME280;21879;50.110;18.900;2022-11-23T12:14:12;97505.36;;;3.83;67.89
35758;BME280;21879;50.110;18.900;2022-11-23T12:24:55;97509.65;;;3.85;67.39
35758;BME280;21879;50.110;18.900;2022-11-23T12:35:35;97527.55;;;3.73;67.26
35758;BME280;21879;50.110;18.900;2022-11-23T12:46:15;97534.08;;;3.78;67.30
35758;BME280;21879;50.110;18.900;2022-11-23T12:57:02;97540.05;;;3.95;67.11
35758;BME280;21879;50.110;18.900;2022-11-23T13:18:57;97547.48;;;3.89;66.68
35758;BME280;21879;50.110;18.900;2022-11-23T13:29:55;97542.33;;;3.81;66.91
35758;BME280;21879;50.110;18.900;2022-11-23T13:40:27;97555.20;;;3.97;67.01
35758;BME280;21879;50.110;18.900;2022-11-23T13:50:59;97562.60;;;3.88;66.44
35758;BME280;21879;50.110;18.900;2022-11-23T14:02:01;97557.08;;;4.01;66.94
35758;BME280;21879;50.110;18.900;2022-11-23T14:12:34;97561.36;;;4.13;66.51
35758;BME280;21879;50.110;18.900;2022-11-23T14:34:01;97580.10;;;4.20;66.39
35758;BME280;21879;50.110;18.900;2022-11-23T14:44:33;97577.31;;;4.29;66.30
35758;BME280;21879;50.110;18.900;2022-11-23T14:55:06;97586.27;;;4.25;66.03
35758;BME280;21879;50.110;18.900;2022-11-23T15:05:34;97593.30;;;4.34;66.07
35758;BME280;21879;50.110;18.900;2022-11-23T15:16:04;97603.63;;;4.39;65.88
35758;BME280;21879;50.110;18.900;2022-11-23T15:26:32;97605.02;;;4.25;65.60
35758;BME280;21879;50.110;18.900;2022-11-23T15:37:15;97590.05;;;4.28;65.64
35758;BME280;21879;50.110;18.900;2022-11-23T15:47:43;97602.56;;;4.49;65.99
35758;BME280;21879;50.110;18.900;2022-11-23T15:58:15;97609.93;;;4.60;65.50
35758;BME280;21879;50.110;18.900;2022-11-23T16:08:43;97604.69;;;4.80;65.55
35758;BME280;21879;50.110;18.900;2022-11-23T16:19:31;97619.13;;;4.85;64.95
35758;BME280;21879;50.110;18.900;2022-11-23T16:30:00;97616.59;;;4.76;64.81
35758;BME280;21879;50.110;18.900;2022-11-23T16:40:29;97626.27;;;4.64;64.67
35758;BME280;21879;50.110;18.900;2022-11-23T16:50:57;97623.73;;;4.56;64.96
35758;BME280;21879;50.110;18.900;2022-11-23T17:01:26;97633.19;;;4.51;64.71
35758;BME280;21879;50.110;18.900;2022-11-23T17:11:54;97635.65;;;4.29;64.94
35758;BME280;21879;50.110;18.900;2022-11-23T17:22:22;97637.73;;;4.15;64.93
35758;BME280;21879;50.110;18.900;2022-11-23T17:32:49;97642.55;;;4.11;65.35
35758;BME280;21879;50.110;18.900;2022-11-23T17:43:20;97629.94;;;4.45;65.72
35758;BME280;21879;50.110;18.900;2022-11-23T17:53:47;97633.67;;;4.63;65.35
35758;BME280;21879;50.110;18.900;2022-11-23T18:04:15;97628.89;;;4.52;65.19
35758;BME280;21879;50.110;18.900;2022-11-23T18:14:42;97650.23;;;4.58;65.41
35758;BME280;21879;50.110;18.900;2022-11-23T18:25:10;97649.56;;;4.43;65.00
35758;BME280;21879;50.110;18.900;2022-11-23T18:35:38;97648.23;;;4.17;65.00
35758;BME280;21879;50.110;18.900;2022-11-23T18:46:07;97639.97;;;3.89;65.50
35758;BME280;21879;50.110;18.900;2022-11-23T18:56:35;97651.68;;;3.83;66.12
35758;BME280;21879;50.110;18.900;2022-11-23T19:07:02;97658.21;;;3.80;66.15
35758;BME280;21879;50.110;18.900;2022-11-23T19:17:30;97651.67;;;3.73;66.45
35758;BME280;21879;50.110;18.900;2022-11-23T19:28:00;97648.23;;;3.90;67.02
35758;BME280;21879;50.110;18.900;2022-11-23T19:38:27;97648.05;;;4.11;66.70
35758;BME280;21879;50.110;18.900;2022-11-23T19:48:57;97644.46;;;3.95;66.54
35758;BME280;21879;50.110;18.900;2022-11-23T19:59:25;97648.92;;;4.03;66.72
35758;BME280;21879;50.110;18.900;2022-11-23T20:09:52;97657.33;;;4.26;66.73
35758;BME280;21879;50.110;18.900;2022-11-23T20:20:20;97659.54;;;4.45;66.39
35758;BME280;21879;50.110;18.900;2022-11-23T20:30:47;97663.66;;;4.47;65.90
35758;BME280;21879;50.110;18.900;2022-11-23T20:41:17;97670.22;;;4.43;65.99
35758;BME280;21879;50.110;18.900;2022-11-23T20:51:45;97677.27;;;4.48;65.66
35758;BME280;21879;50.110;18.900;2022-11-23T21:02:12;97680.55;;;4.35;65.46
35758;BME280;21879;50.110;18.900;2022-11-23T21:12:40;97679.70;;;4.25;65.87
35758;BME280;21879;50.110;18.900;2022-11-23T21:23:26;97691.91;;;4.40;66.11
35758;BME280;21879;50.110;18.900;2022-11-23T21:33:54;97702.05;;;4.48;66.21
35758;BME280;21879;50.110;18.900;2022-11-23T21:44:30;97709.29;;;4.47;66.08
35758;BME280;21879;50.110;18.900;2022-11-23T21:54:58;97715.13;;;4.51;66.18
35758;BME280;21879;50.110;18.900;2022-11-23T22:05:25;97724.77;;;4.62;65.96
35758;BME280;21879;50.110;18.900;2022-11-23T22:15:53;97722.71;;;4.39;65.44
35758;BME280;21879;50.110;18.900;2022-11-23T22:26:20;97722.91;;;4.24;65.51
35758;BME280;21879;50.110;18.900;2022-11-23T22:36:49;97717.56;;;4.27;65.76
35758;BME280;21879;50.110;18.900;2022-11-23T22:47:17;97716.87;;;4.36;65.59
35758;BME280;21879;50.110;18.900;2022-11-23T22:57:45;97711.02;;;3.99;65.48
35758;BME280;21879;50.110;18.900;2022-11-23T23:08:12;97713.25;;;3.95;66.03
35758;BME280;21879;50.110;18.900;2022-11-23T23:18:40;97708.60;;;4.30;66.21
35758;BME280;21879;50.110;18.900;2022-11-23T23:29:09;97715.33;;;4.28;65.79
35758;BME280;21879;50.110;18.900;2022-11-23T23:39:36;97711.20;;;4.29;65.86
35758;BME280;21879;50.110;18.900;2022-11-23T23:50:04;97716.36;;;4.33;65.71
